Time;durP1;ratioP1;P1;durP2;ratioP2;P2;SDS_P1;SDS_P2;PMS_P1;PMS_P2;Temp;Humidity;BMP_temperature;BMP_pressure;BME280_temperature;BME280_humidity;BME280_pressure;Samples;Min_cycle;Max_cycle;Signal;HPM_P1;HPM_P2
2022/04/24 00:01:12;;;;;;;6.03;4.30;;;;;;;10.68;100.00;99760.69;5093590;28;20056;-64
2022/04/24 00:03:41;;;;;;;4.60;3.80;;;;;;;10.64;100.00;99772.53;5079437;28;20036;-63
2022/04/24 00:06:09;;;;;;;4.53;3.40;;;;;;;10.60;100.00;99772.28;5093524;28;20048;-63
2022/04/24 00:08:37;;;;;;;4.22;3.80;;;;;;;10.57;100.00;99762.75;5093702;28;20396;-63
2022/04/24 00:11:06;;;;;;;5.38;4.05;;;;;;;10.56;100.00;99763.09;5092226;28;20483;-63
2022/04/24 00:13:39;;;;;;;12.68;4.63;;;;;;;10.50;100.00;99770.56;5093324;28;20043;-63
2022/04/24 00:16:08;;;;;;;6.37;4.70;;;;;;;10.52;100.00;99767.53;5093672;28;20048;-63
2022/04/24 00:18:38;;;;;;;6.40;4.50;;;;;;;10.57;100.00;99759.22;5092745;28;20055;-63
2022/04/24 00:21:06;;;;;;;6.72;5.22;;;;;;;10.80;100.00;99768.38;5093467;28;20048;-63
2022/04/24 00:23:34;;;;;;;5.60;5.03;;;;;;;10.66;100.00;99768.34;5092951;28;20044;-63
2022/04/24 00:26:01;;;;;;;6.25;4.32;;;;;;;10.56;100.00;99776.75;5093068;28;20044;-63
2022/04/24 00:28:29;;;;;;;4.38;3.97;;;;;;;10.41;100.00;99775.84;5093172;28;20051;-64
2022/04/24 00:30:57;;;;;;;5.80;4.65;;;;;;;10.32;100.00;99764.78;5093175;28;20063;-64
2022/04/24 00:33:25;;;;;;;4.93;4.22;;;;;;;10.34;100.00;99759.03;5093033;28;20072;-64
2022/04/24 00:35:54;;;;;;;6.20;4.60;;;;;;;10.28;100.00;99750.09;5093209;28;20051;-64
2022/04/24 00:38:21;;;;;;;5.57;4.90;;;;;;;10.22;100.00;99746.63;5092721;28;20063;-64
2022/04/24 00:40:49;;;;;;;5.95;4.82;;;;;;;10.21;100.00;99753.22;5086493;28;20047;-64
2022/04/24 00:43:19;;;;;;;6.88;4.82;;;;;;;10.39;100.00;99747.19;5072167;28;20044;-64
2022/04/24 00:46:50;;;;;;;5.32;4.28;;;;;;;10.30;100.00;99766.19;5040034;28;20519;-64
2022/04/24 00:49:19;;;;;;;8.20;5.10;;;;;;;10.21;100.00;99764.16;5036202;28;20071;-63
2022/04/24 00:51:47;;;;;;;6.53;4.65;;;;;;;10.15;100.00;99753.56;5077784;28;20052;-64
2022/04/24 00:54:15;;;;;;;8.07;5.28;;;;;;;10.24;100.00;99759.19;5092615;28;20040;-64
2022/04/24 00:56:44;;;;;;;6.43;5.15;;;;;;;10.30;100.00;99756.06;5092808;28;20119;-64
2022/04/24 00:59:14;;;;;;;7.88;5.43;;;;;;;10.40;100.00;99748.84;5092349;28;20411;-64
2022/04/24 01:01:42;;;;;;;7.13;5.00;;;;;;;10.30;100.00;99753.34;5092762;28;20055;-64
2022/04/24 01:04:11;;;;;;;6.00;4.57;;;;;;;10.31;100.00;99749.50;5092322;28;20052;-64
2022/04/24 01:06:42;;;;;;;4.95;4.45;;;;;;;10.22;100.00;99745.84;5092357;28;20044;-63
2022/04/24 01:09:20;;;;;;;4.32;3.60;;;;;;;10.07;100.00;99741.41;5092379;28;20059;-64
2022/04/24 01:11:52;;;;;;;4.70;3.95;;;;;;;10.03;100.00;99741.16;5092424;28;20040;-64
2022/04/24 01:14:22;;;;;;;5.13;4.30;;;;;;;10.09;100.00;99741.91;5092089;28;20048;-64
2022/04/24 01:16:51;;;;;;;5.38;4.60;;;;;;;10.12;100.00;99744.03;5077888;28;20040;-63
2022/04/24 01:19:19;;;;;;;8.00;4.50;;;;;;;10.13;100.00;99740.22;5092034;28;20044;-64
2022/04/24 01:21:49;;;;;;;7.65;4.43;;;;;;;10.19;100.00;99733.56;5092077;28;20063;-64
2022/04/24 01:24:20;;;;;;;5.38;4.22;;;;;;;10.24;100.00;99734.56;5080335;28;20517;-64
2022/04/24 01:26:49;;;;;;;5.07;4.18;;;;;;;10.18;100.00;99729.19;5090332;28;20071;-64
2022/04/24 01:29:18;;;;;;;5.65;4.15;;;;;;;10.11;100.00;99731.50;5091792;28;20059;-64
2022/04/24 01:31:50;;;;;;;6.38;4.07;;;;;;;10.05;100.00;99738.97;5092084;28;20036;-64
2022/04/24 01:34:19;;;;;;;4.20;3.63;;;;;;;10.04;100.00;99742.00;5091737;28;20059;-64
2022/04/24 01:36:48;;;;;;;4.45;4.05;;;;;;;10.01;100.00;99746.13;5092000;28;20478;-64
2022/04/24 01:39:17;;;;;;;7.35;4.25;;;;;;;10.09;100.00;99739.19;5092014;28;20059;-64
2022/04/24 01:41:45;;;;;;;5.43;4.10;;;;;;;10.24;100.00;99732.66;5089656;28;20055;-64
2022/04/24 01:44:13;;;;;;;5.30;4.75;;;;;;;10.24;100.00;99735.41;5079073;28;20155;-64
2022/04/24 01:46:41;;;;;;;4.55;4.13;;;;;;;10.25;100.00;99741.66;5085411;28;20494;-64
2022/04/24 01:49:09;;;;;;;5.93;4.43;;;;;;;10.17;100.00;99749.44;5064082;28;20409;-64
2022/04/24 01:51:37;;;;;;;4.22;3.83;;;;;;;10.30;100.00;99738.84;5091965;28;20050;-63
2022/04/24 01:54:05;;;;;;;4.57;3.40;;;;;;;10.27;100.00;99736.72;5094322;28;20048;-64
2022/04/24 01:56:33;;;;;;;5.97;3.55;;;;;;;10.25;100.00;99733.47;5096265;28;20055;-64
2022/04/24 01:59:00;;;;;;;5.03;3.47;;;;;;;10.34;100.00;99731.69;5095556;28;20383;-64
2022/04/24 02:01:28;;;;;;;3.20;2.65;;;;;;;10.20;100.00;99740.66;5096083;28;20047;-64
2022/04/24 02:03:56;;;;;;;1.73;1.60;;;;;;;10.16;100.00;99744.28;5095471;28;20056;-63
2022/04/24 02:06:24;;;;;;;1.80;1.55;;;;;;;10.10;100.00;99743.53;5095957;28;20502;-63
2022/04/24 02:08:52;;;;;;;4.60;1.80;;;;;;;10.04;100.00;99725.59;5094737;28;20040;-63
2022/04/24 02:11:21;;;;;;;2.50;2.15;;;;;;;10.05;100.00;99722.56;5095613;28;20419;-63
2022/04/24 02:13:49;;;;;;;2.13;2.03;;;;;;;10.05;100.00;99727.22;5095653;28;20406;-63
2022/04/24 02:16:16;;;;;;;3.08;2.58;;;;;;;10.11;100.00;99723.28;5095230;28;20418;-63
2022/04/24 02:18:44;;;;;;;3.13;2.50;;;;;;;10.21;100.00;99736.81;5095715;28;20052;-63
2022/04/24 02:21:13;;;;;;;3.17;2.88;;;;;;;10.33;100.00;99754.66;5095680;28;20055;-63
2022/04/24 02:23:41;;;;;;;3.95;3.30;;;;;;;10.52;100.00;99767.53;5095547;28;20049;-63
2022/04/24 02:26:09;;;;;;;4.78;2.92;;;;;;;10.62;100.00;99789.25;5084137;28;20487;-63
2022/04/24 02:28:37;;;;;;;5.40;3.45;;;;;;;10.71;100.00;99820.25;5092691;28;20056;-63
2022/04/24 02:31:04;;;;;;;8.73;4.10;;;;;;;10.59;100.00;99823.47;5095553;28;20486;-64
2022/04/24 02:33:33;;;;;;;4.75;4.25;;;;;;;10.55;100.00;99827.13;5095437;28;20051;-63
2022/04/24 02:36:00;;;;;;;6.20;3.92;;;;;;;10.55;100.00;99816.19;5095164;28;20056;-63
2022/04/24 02:38:29;;;;;;;5.68;4.35;;;;;;;10.54;100.00;99804.41;5095338;28;20044;-63
2022/04/24 02:40:57;;;;;;;4.68;2.55;;;;;;;10.41;100.00;99811.41;5095345;28;20394;-64
2022/04/24 02:43:25;;;;;;;3.47;2.40;;;;;;;10.42;100.00;99795.84;5094962;28;20384;-64
2022/04/24 02:45:52;;;;;;;2.33;1.73;;;;;;;10.55;100.00;99789.63;5095430;28;20051;-63
2022/04/24 02:48:22;;;;;;;2.22;1.70;;;;;;;10.57;100.00;99787.38;5067092;28;20045;-63
2022/04/24 02:50:51;;;;;;;1.42;1.33;;;;;;;10.50;99.91;99761.56;5094367;28;20048;-63
2022/04/24 02:53:19;;;;;;;0.85;0.60;;;;;;;10.44;98.36;99760.81;5093531;28;20055;-63
2022/04/24 02:55:47;;;;;;;0.65;0.57;;;;;;;10.41;100.00;99745.78;5080707;28;20052;-64
2022/04/24 02:58:15;;;;;;;0.75;0.40;;;;;;;10.35;97.00;99693.09;5094588;28;20052;-63
2022/04/24 03:00:49;;;;;;;0.20;0.20;;;;;;;10.26;96.49;99688.63;5094656;28;20063;-63
2022/04/24 03:03:20;;;;;;;0.43;0.40;;;;;;;10.20;100.00;99685.16;5094557;28;20052;-63
2022/04/24 03:05:49;;;;;;;0.47;0.25;;;;;;;10.19;100.00;99689.00;5081229;28;20048;-64
2022/04/24 03:08:19;;;;;;;0.95;0.30;;;;;;;10.07;100.00;99667.59;5092790;28;20071;-64
2022/04/24 03:10:48;;;;;;;0.17;0.17;;;;;;;10.00;100.00;99661.69;5094175;28;20078;-63
2022/04/24 03:13:16;;;;;;;0.40;0.40;;;;;;;10.22;100.00;99678.28;5094511;28;20059;-63
2022/04/24 03:15:43;;;;;;;0.15;0.13;;;;;;;10.20;100.00;99666.84;5094321;28;20056;-63
2022/04/24 03:18:11;;;;;;;0.20;0.20;;;;;;;10.13;100.00;99671.88;5094034;28;20510;-63
2022/04/24 03:20:39;;;;;;;0.10;0.10;;;;;;;9.95;100.00;99673.53;5094128;28;20052;-64
2022/04/24 03:23:07;;;;;;;0.20;0.20;;;;;;;9.74;100.00;99673.03;5094326;28;20070;-63
2022/04/24 03:25:35;;;;;;;1.83;0.43;;;;;;;9.55;100.00;99684.78;5094616;28;20028;-64
2022/04/24 03:28:03;;;;;;;0.13;0.13;;;;;;;9.39;100.00;99692.38;5094668;28;20434;-63
2022/04/24 03:30:31;;;;;;;0.93;0.30;;;;;;;9.22;100.00;99692.84;5094187;28;20486;-63
2022/04/24 03:32:59;;;;;;;0.40;0.40;;;;;;;9.32;100.00;99690.00;5094553;28;20055;-63
2022/04/24 03:35:27;;;;;;;0.63;0.30;;;;;;;9.33;100.00;99686.16;5094259;28;20048;-63
2022/04/24 03:37:55;;;;;;;0.55;0.32;;;;;;;9.35;100.00;99683.16;5093272;28;20040;-63
2022/04/24 03:40:23;;;;;;;0.82;0.70;;;;;;;9.38;100.00;99688.00;5094293;28;20051;-64
2022/04/24 03:42:51;;;;;;;0.40;0.40;;;;;;;9.45;100.00;99687.66;5093820;28;20044;-64
2022/04/24 03:45:19;;;;;;;0.52;0.32;;;;;;;9.54;100.00;99688.63;5093881;28;20048;-64
2022/04/24 03:47:51;;;;;;;1.17;0.57;;;;;;;9.43;100.00;99692.59;5085340;28;20040;-64
2022/04/24 03:50:20;;;;;;;0.50;0.45;;;;;;;9.41;100.00;99699.19;5093904;28;20490;-63
2022/04/24 03:52:48;;;;;;;2.17;0.38;;;;;;;9.46;100.00;99711.13;5094286;28;20040;-64
2022/04/24 03:55:16;;;;;;;0.65;0.30;;;;;;;9.47;100.00;99713.56;5093964;28;20051;-64
2022/04/24 03:57:44;;;;;;;0.93;0.60;;;;;;;9.59;100.00;99721.34;5093700;28;20043;-63
2022/04/24 04:00:12;;;;;;;0.25;0.25;;;;;;;9.67;100.00;99737.06;5093565;28;20055;-64
2022/04/24 04:02:47;;;;;;;0.40;0.40;;;;;;;9.70;100.00;99743.03;5093327;28;20040;-63
2022/04/24 04:05:16;;;;;;;1.58;0.60;;;;;;;9.80;100.00;99740.97;5076353;28;20040;-63
2022/04/24 04:07:44;;;;;;;0.22;0.22;;;;;;;9.80;100.00;99743.72;5079053;28;20040;-64
2022/04/24 04:10:12;;;;;;;0.40;0.38;;;;;;;9.72;100.00;99754.50;5069746;28;20056;-64
2022/04/24 04:12:40;;;;;;;0.40;0.40;;;;;;;9.67;100.00;99769.84;5093670;28;20394;-63
2022/04/24 04:15:09;;;;;;;0.40;0.40;;;;;;;9.58;100.00;99759.88;5078827;28;20063;-63
2022/04/24 04:17:37;;;;;;;1.30;0.55;;;;;;;9.64;100.00;99773.16;5092454;28;20150;-63
2022/04/24 04:20:09;;;;;;;0.70;0.50;;;;;;;9.63;100.00;99771.53;5093413;28;20043;-63
2022/04/24 04:22:51;;;;;;;0.70;0.70;;;;;;;9.65;100.00;99776.69;5093014;28;20550;-63
2022/04/24 04:25:21;;;;;;;1.02;0.70;;;;;;;9.70;100.00;99776.63;5093255;28;20564;-63
2022/04/24 04:27:50;;;;;;;0.75;0.60;;;;;;;9.82;100.00;99768.81;5093308;28;20048;-63
2022/04/24 04:30:18;;;;;;;1.20;0.73;;;;;;;9.94;100.00;99779.28;5093110;28;20058;-63
2022/04/24 04:32:47;;;;;;;1.38;0.60;;;;;;;9.93;100.00;99772.22;5093055;28;20044;-63
2022/04/24 04:35:14;;;;;;;0.88;0.55;;;;;;;10.06;100.00;99778.03;5093254;28;20055;-63
2022/04/24 04:37:42;;;;;;;0.75;0.75;;;;;;;10.00;100.00;99773.75;5093181;28;20080;-63
2022/04/24 04:40:12;;;;;;;1.52;0.82;;;;;;;9.99;100.00;99767.50;5077500;28;20056;-63
2022/04/24 04:42:40;;;;;;;0.88;0.85;;;;;;;9.93;100.00;99766.75;5079759;28;20051;-63
2022/04/24 04:45:09;;;;;;;0.93;0.80;;;;;;;9.89;100.00;99763.00;5092547;28;20051;-63
2022/04/24 04:47:37;;;;;;;3.95;0.80;;;;;;;9.76;100.00;99759.06;5084535;28;20055;-63
2022/04/24 04:50:06;;;;;;;1.15;0.90;;;;;;;9.91;100.00;99763.50;5092608;28;20052;-64
2022/04/24 04:52:34;;;;;;;2.35;0.80;;;;;;;9.94;100.00;99756.63;5092865;28;20040;-63
2022/04/24 04:55:03;;;;;;;0.95;0.85;;;;;;;9.86;100.00;99754.56;5092928;28;20043;-63
2022/04/24 04:57:32;;;;;;;1.42;0.82;;;;;;;9.80;100.00;99748.34;5092878;28;20059;-63
2022/04/24 05:00:00;;;;;;;1.85;0.90;;;;;;;9.78;100.00;99747.84;5092777;28;20044;-63
2022/04/24 05:02:28;;;;;;;2.95;1.08;;;;;;;9.88;100.00;99747.69;5092369;28;20525;-64
2022/04/24 05:04:56;;;;;;;1.20;0.82;;;;;;;9.93;100.00;99744.88;5092385;28;20040;-64
2022/04/24 05:07:24;;;;;;;1.08;0.80;;;;;;;9.97;100.00;99750.56;5092596;28;20071;-64
2022/04/24 05:09:52;;;;;;;3.53;0.77;;;;;;;10.04;100.00;99739.25;5092188;28;20755;-64
2022/04/24 05:12:25;;;;;;;0.88;0.70;;;;;;;10.09;100.00;99739.19;5092459;28;20044;-64
2022/04/24 05:14:53;;;;;;;0.93;0.80;;;;;;;10.12;100.00;99737.78;5092534;28;20040;-64
2022/04/24 05:17:21;;;;;;;3.30;0.80;;;;;;;10.05;100.00;99732.69;5092471;28;20056;-64
2022/04/24 05:19:49;;;;;;;1.70;0.90;;;;;;;10.06;100.00;99728.84;5092250;28;20418;-63
2022/04/24 05:22:22;;;;;;;1.10;0.52;;;;;;;9.97;100.00;99727.91;5075683;28;20048;-63
2022/04/24 05:24:50;;;;;;;0.90;0.80;;;;;;;10.07;100.00;99711.34;5076166;28;20057;-63
2022/04/24 05:27:19;;;;;;;1.40;0.93;;;;;;;9.98;100.00;99721.31;5084118;28;20049;-63
2022/04/24 05:29:47;;;;;;;1.00;0.90;;;;;;;9.89;100.00;99708.34;5078800;28;20037;-63
2022/04/24 05:32:16;;;;;;;0.95;0.60;;;;;;;10.13;100.00;99707.41;5079033;28;20048;-63
2022/04/24 05:34:44;;;;;;;0.43;0.43;;;;;;;10.39;100.00;99712.44;5085731;28;20052;-63
2022/04/24 05:37:12;;;;;;;1.35;0.65;;;;;;;10.37;100.00;99722.88;5091272;28;20470;-64
2022/04/24 05:39:40;;;;;;;0.70;0.52;;;;;;;10.39;100.00;99720.66;5091913;28;20048;-63
2022/04/24 05:42:08;;;;;;;0.20;0.20;;;;;;;10.46;100.00;99714.84;5091943;28;20051;-63
2022/04/24 05:44:36;;;;;;;1.55;0.52;;;;;;;10.50;100.00;99715.03;5092217;28;20044;-64
2022/04/24 05:47:05;;;;;;;2.47;0.47;;;;;;;10.57;100.00;99724.47;5077186;28;20052;-63
2022/04/24 05:49:33;;;;;;;1.55;0.43;;;;;;;10.60;100.00;99736.72;5085227;28;20032;-63
2022/04/24 05:52:01;;;;;;;0.32;0.32;;;;;;;10.58;100.00;99737.06;5075076;28;20044;-64
2022/04/24 05:54:30;;;;;;;1.95;0.77;;;;;;;10.58;100.00;99726.09;5076852;28;20057;-63
2022/04/24 05:56:58;;;;;;;2.10;0.95;;;;;;;10.58;100.00;99750.72;5077309;28;20498;-64
2022/04/24 05:59:26;;;;;;;1.48;0.70;;;;;;;10.81;100.00;99764.53;5074710;28;20048;-64
2022/04/24 06:01:54;;;;;;;0.68;0.52;;;;;;;11.10;100.00;99748.97;5077247;28;20044;-64
2022/04/24 06:04:22;;;;;;;1.10;0.50;;;;;;;11.06;100.00;99753.41;5066505;28;20040;-63
2022/04/24 06:06:50;;;;;;;2.10;0.70;;;;;;;11.04;100.00;99756.47;5075651;28;20044;-64
2022/04/24 06:09:19;;;;;;;1.55;0.93;;;;;;;11.19;100.00;99741.66;5073807;28;20051;-64
2022/04/24 06:11:47;;;;;;;1.58;0.82;;;;;;;11.46;100.00;99745.50;5067471;28;20403;-64
2022/04/24 06:14:15;;;;;;;1.67;0.88;;;;;;;11.61;99.12;99746.28;5074283;28;20040;-64
2022/04/24 06:16:44;;;;;;;2.38;1.42;;;;;;;11.77;100.00;99742.09;5071891;28;20044;-71
2022/04/24 06:19:17;;;;;;;1.85;0.98;;;;;;;11.94;98.48;99740.63;5065836;28;20056;-70
2022/04/24 06:21:46;;;;;;;1.95;1.17;;;;;;;12.13;97.54;99742.41;5066747;28;20041;-70
2022/04/24 06:24:20;;;;;;;3.38;0.60;;;;;;;12.28;98.12;99743.97;5063778;28;20040;-72
2022/04/24 06:26:52;;;;;;;1.65;0.98;;;;;;;12.29;97.93;99749.16;5061439;28;20041;-71
2022/04/24 06:29:26;;;;;;;;;;;;;;;12.35;96.88;99752.56;5066716;28;20036;-71
2022/04/24 06:31:54;;;;;;;1.23;0.90;;;;;;;12.19;99.57;99761.19;5068657;28;19925;-71
2022/04/24 06:34:22;;;;;;;1.58;0.93;;;;;;;12.14;95.43;99749.50;5071360;28;20074;-72
2022/04/24 06:36:50;;;;;;;1.25;1.15;;;;;;;12.02;94.25;99745.34;5067769;28;20498;-72
2022/04/24 06:39:18;;;;;;;0.45;0.35;;;;;;;11.91;95.54;99754.94;5070742;28;20048;-72
2022/04/24 06:41:45;;;;;;;4.00;0.90;;;;;;;11.95;97.98;99750.47;5069782;28;20411;-71
2022/04/24 06:44:24;;;;;;;0.95;0.70;;;;;;;11.93;97.56;99747.22;5072862;28;20403;-72
2022/04/24 06:46:52;;;;;;;2.40;1.00;;;;;;;11.85;98.19;99751.50;5073856;28;20041;-72
2022/04/24 06:49:20;;;;;;;2.75;1.13;;;;;;;11.81;98.77;99759.56;5073174;28;20043;-72
2022/04/24 06:51:48;;;;;;;2.75;1.00;;;;;;;11.81;100.00;99755.97;5068501;28;20048;-72
2022/04/24 06:54:16;;;;;;;0.95;0.75;;;;;;;11.90;99.11;99775.25;5070160;28;20395;-73
2022/04/24 06:56:44;;;;;;;2.22;1.02;;;;;;;11.90;97.12;99781.56;5069788;28;20040;-74
2022/04/24 06:59:12;;;;;;;3.17;1.50;;;;;;;11.92;95.32;99781.22;5080420;28;20048;-73
2022/04/24 07:01:43;;;;;;;5.53;2.20;;;;;;;11.88;91.71;99783.78;5066817;28;20067;-74
2022/04/24 07:04:14;;;;;;;7.25;1.70;;;;;;;11.79;93.72;99786.44;5067271;28;20052;-73
2022/04/24 07:06:42;;;;;;;2.08;1.35;;;;;;;11.79;94.35;99774.69;5079172;28;20047;-73
2022/04/24 07:09:10;;;;;;;1.90;1.55;;;;;;;11.83;94.85;99786.63;5069136;28;20055;-73
2022/04/24 07:11:40;;;;;;;1.83;1.45;;;;;;;11.68;95.43;99785.03;5064114;28;20045;-72
2022/04/24 07:14:08;;;;;;;2.83;1.40;;;;;;;11.58;95.40;99779.78;5067080;28;20048;-73
2022/04/24 07:16:36;;;;;;;1.77;1.15;;;;;;;11.56;96.09;99785.56;5066056;28;20513;-73
2022/04/24 07:19:04;;;;;;;1.75;0.90;;;;;;;11.54;96.93;99774.91;5066022;28;20045;-74
2022/04/24 07:21:32;;;;;;;2.60;1.05;;;;;;;11.65;93.45;99774.69;5067493;28;20029;-73
2022/04/24 07:24:01;;;;;;;1.15;0.95;;;;;;;11.56;92.35;99774.59;5073420;28;20041;-73
2022/04/24 07:26:30;;;;;;;5.15;1.40;;;;;;;11.63;94.60;99774.22;5071591;28;20044;-73
2022/04/24 07:28:58;;;;;;;3.67;2.00;;;;;;;11.61;94.89;99770.94;5072488;28;20047;-73
2022/04/24 07:31:26;;;;;;;1.70;1.02;;;;;;;11.51;95.64;99770.06;5071379;28;20048;-73
2022/04/24 07:33:56;;;;;;;2.00;1.08;;;;;;;11.54;95.62;99758.47;5072959;28;20052;-73
2022/04/24 07:36:24;;;;;;;1.73;1.10;;;;;;;11.47;95.04;99758.06;5072444;28;20044;-73
2022/04/24 07:38:52;;;;;;;2.05;0.88;;;;;;;11.68;94.12;99769.41;5073562;28;20479;-73
2022/04/24 07:41:20;;;;;;;1.83;0.75;;;;;;;11.65;95.65;99769.22;5072292;28;20060;-73
2022/04/24 07:43:49;;;;;;;1.75;0.50;;;;;;;11.68;94.42;99768.59;5073651;28;20052;-73
2022/04/24 07:46:17;;;;;;;1.70;1.13;;;;;;;11.58;98.08;99774.31;5079344;28;20036;-73
2022/04/24 07:48:45;;;;;;;1.67;0.65;;;;;;;11.67;95.84;99777.94;5083204;28;20395;-73
2022/04/24 07:51:13;;;;;;;2.40;0.82;;;;;;;11.65;97.68;99786.50;5076470;28;20048;-73
2022/04/24 07:53:42;;;;;;;1.17;0.63;;;;;;;11.67;95.39;99792.47;5079227;28;20402;-72
2022/04/24 07:56:10;;;;;;;0.80;0.80;;;;;;;11.65;97.27;99793.88;5081504;28;20449;-73
2022/04/24 07:58:43;;;;;;;2.53;0.30;;;;;;;11.65;94.62;99785.66;5067895;28;20048;-73
2022/04/24 08:01:16;;;;;;;2.40;0.40;;;;;;;11.66;93.73;99790.84;5063153;28;20040;-73
2022/04/24 08:03:48;;;;;;;0.82;0.63;;;;;;;11.54;95.00;99807.00;5066207;28;20052;-73
2022/04/24 08:06:18;;;;;;;0.82;0.60;;;;;;;11.56;95.57;99805.56;5066298;28;20063;-73
2022/04/24 08:08:47;;;;;;;3.55;0.43;;;;;;;11.70;96.17;99805.53;5064693;28;20049;-72
2022/04/24 08:11:15;;;;;;;0.88;0.60;;;;;;;11.82;94.60;99812.44;5064959;28;20045;-71
2022/04/24 08:13:47;;;;;;;0.55;0.50;;;;;;;11.91;94.59;99821.56;5069640;28;20044;-73
2022/04/24 08:16:15;;;;;;;0.80;0.52;;;;;;;11.92;94.72;99834.16;5071540;28;20384;-72
2022/04/24 08:18:43;;;;;;;1.95;0.88;;;;;;;11.93;95.43;99843.19;5078287;28;20051;-72
2022/04/24 08:21:13;;;;;;;0.60;0.60;;;;;;;11.86;95.51;99837.28;5071736;28;20049;-72
2022/04/24 08:24:31;;;;;;;2.95;0.90;;;;;;;12.03;95.88;99836.66;5397622;22;20024;-68
2022/04/24 08:26:59;;;;;;;2.47;0.63;;;;;;;12.10;94.51;99839.81;4990145;28;20054;-68
2022/04/24 08:29:27;;;;;;;2.00;0.68;;;;;;;12.04;94.38;99838.31;4983417;28;20061;-68
2022/04/24 08:31:55;;;;;;;1.67;0.40;;;;;;;12.07;95.08;99840.44;4985515;28;20050;-77
2022/04/24 08:34:23;;;;;;;2.67;0.50;;;;;;;12.14;94.67;99840.03;4987934;28;20050;-69
2022/04/24 08:36:51;;;;;;;9.57;4.55;;;;;;;12.14;94.69;99834.53;4989355;28;20065;-67
2022/04/24 08:39:19;;;;;;;5.90;2.17;;;;;;;12.09;93.63;99836.25;4983242;28;20136;-67
2022/04/24 08:41:47;;;;;;;3.47;1.40;;;;;;;11.98;95.40;99826.63;4988687;28;20396;-67
2022/04/24 08:44:15;;;;;;;2.05;0.90;;;;;;;11.96;96.13;99845.31;4989755;28;20484;-67
2022/04/24 08:46:46;;;;;;;1.80;0.85;;;;;;;11.98;96.06;99837.59;4989709;28;20052;-67
2022/04/24 08:49:15;;;;;;;0.50;0.50;;;;;;;11.98;93.10;99848.56;4990980;28;20424;-68
2022/04/24 08:51:43;;;;;;;1.40;0.85;;;;;;;11.99;92.76;99838.41;4990550;28;20511;-68
2022/04/24 08:54:12;;;;;;;1.27;1.17;;;;;;;11.94;93.46;99848.34;4987398;28;20046;-68
2022/04/24 08:56:40;;;;;;;1.50;1.40;;;;;;;11.91;94.42;99859.13;4990811;28;20061;-68
2022/04/24 08:59:08;;;;;;;0.93;0.93;;;;;;;11.82;92.88;99857.13;4986778;28;20504;-68
2022/04/24 09:01:44;;;;;;;2.90;0.77;;;;;;;11.77;93.94;99851.72;4973522;28;20054;-68
2022/04/24 09:04:13;;;;;;;1.60;1.50;;;;;;;11.68;93.49;99846.16;4982398;28;20061;-69
2022/04/24 09:06:41;;;;;;;3.67;2.95;;;;;;;11.77;93.04;99859.13;4988914;28;20076;-68
2022/04/24 09:09:09;;;;;;;3.92;1.80;;;;;;;11.89;93.04;99861.38;4986977;28;20073;-68
2022/04/24 09:11:37;;;;;;;3.40;2.20;;;;;;;11.83;93.70;99861.47;4990232;28;20050;-68
2022/04/24 09:14:15;;;;;;;2.25;2.10;;;;;;;11.88;94.24;99862.50;4979109;28;20058;-68
2022/04/24 09:16:49;;;;;;;1.60;1.50;;;;;;;11.81;95.70;99877.44;4983315;28;20042;-68
2022/04/24 09:19:20;;;;;;;3.50;2.03;;;;;;;11.91;94.81;99878.31;4983409;28;20509;-67
2022/04/24 09:21:50;;;;;;;2.00;1.48;;;;;;;11.96;95.25;99887.25;4986944;28;20136;-68
2022/04/24 09:24:19;;;;;;;0.73;0.60;;;;;;;12.15;94.32;99889.09;4985865;28;20491;-68
2022/04/24 09:26:56;;;;;;;2.35;1.00;;;;;;;12.18;92.63;99890.41;5003611;28;20057;-68
2022/04/24 09:29:24;;;;;;;0.50;0.40;;;;;;;12.18;93.31;99893.16;5021767;28;20045;-69
2022/04/24 09:31:53;;;;;;;0.47;0.35;;;;;;;12.17;92.92;99897.00;5003060;28;20053;-67
2022/04/24 09:34:21;;;;;;;0.22;0.22;;;;;;;12.19;91.30;99905.75;5007312;28;20420;-69
2022/04/24 09:37:04;;;;;;;0.68;0.68;;;;;;;12.31;90.76;99908.75;5007258;28;20046;-67
2022/04/24 09:39:34;;;;;;;0.60;0.57;;;;;;;12.30;91.57;99904.41;5005557;28;20499;-68
2022/04/24 09:42:10;;;;;;;2.30;0.90;;;;;;;12.41;92.32;99895.94;5003845;28;20043;-68
2022/04/24 09:45:04;;;;;;;0.52;0.43;;;;;;;12.30;91.37;99896.16;5005337;28;20073;-68
2022/04/24 09:47:59;;;;;;;1.10;0.70;;;;;;;12.32;90.42;99907.63;5007392;28;20038;-67
2022/04/24 09:50:30;;;;;;;0.70;0.55;;;;;;;12.44;92.86;99914.53;5013885;28;20049;-68
2022/04/24 09:53:01;;;;;;;1.63;1.05;;;;;;;12.68;92.99;99927.97;5004809;28;20054;-67
2022/04/24 09:55:29;;;;;;;0.45;0.45;;;;;;;12.72;91.85;99931.72;5006301;28;20042;-67
2022/04/24 09:58:01;;;;;;;2.40;1.42;;;;;;;12.83;90.50;99936.97;5007414;28;20057;-67
2022/04/24 10:00:32;;;;;;;2.55;1.33;;;;;;;12.84;89.30;99927.59;5006024;28;20058;-68
2022/04/24 10:03:01;;;;;;;1.52;0.80;;;;;;;12.84;88.41;99919.38;5006188;28;20042;-67
2022/04/24 10:05:32;;;;;;;1.73;0.70;;;;;;;13.00;88.24;99926.13;5007694;28;20046;-67
2022/04/24 10:08:03;;;;;;;0.60;0.60;;;;;;;13.42;87.78;99938.81;5006370;28;20072;-67
2022/04/24 10:10:31;;;;;;;0.47;0.47;;;;;;;13.49;84.23;99930.97;5007858;28;20073;-68
2022/04/24 10:13:06;;;;;;;1.52;0.70;;;;;;;13.81;82.56;99942.75;5010952;28;20042;-69
2022/04/24 10:15:37;;;;;;;0.82;0.40;;;;;;;13.83;81.45;99931.41;5004427;28;20096;-68
2022/04/24 10:18:39;;;;;;;2.28;0.20;;;;;;;13.98;80.58;99936.50;5013417;28;20056;-68
2022/04/24 10:21:22;;;;;;;0.30;0.30;;;;;;;14.19;78.38;99932.34;5005849;28;20431;-68
2022/04/24 10:23:50;;;;;;;0.40;0.40;;;;;;;14.18;78.45;99936.25;5006764;28;20031;-68
2022/04/24 10:26:21;;;;;;;0.13;0.13;;;;;;;13.92;77.52;99928.69;5002264;28;20513;-69
2022/04/24 10:29:00;;;;;;;0.65;0.52;;;;;;;13.92;78.75;99931.44;5003124;28;20062;-68
2022/04/24 10:31:28;;;;;;;0.20;0.20;;;;;;;13.92;77.35;99926.78;5003547;28;20053;-68
2022/04/24 10:34:06;;;;;;;0.32;0.20;;;;;;;13.92;78.94;99926.78;5010970;28;20062;-68
2022/04/24 10:36:35;;;;;;;0.40;0.38;;;;;;;14.01;77.96;99914.97;5009299;28;20046;-69
2022/04/24 10:39:19;;;;;;;0.40;0.40;;;;;;;14.06;78.76;99914.81;5005732;28;20057;-69
2022/04/24 10:42:14;;;;;;;0.20;0.20;;;;;;;14.31;78.04;99932.53;5027260;28;20049;-69
2022/04/24 10:44:55;;;;;;;0.20;0.20;;;;;;;14.34;77.01;99928.34;5006592;28;20050;-69
2022/04/24 10:47:23;;;;;;;0.30;0.30;;;;;;;14.33;76.04;99930.25;5004406;28;20054;-69
2022/04/24 10:50:05;;;;;;;0.57;0.50;;;;;;;14.27;74.77;99925.25;5013697;28;20050;-69
2022/04/24 10:52:43;;;;;;;0.20;0.20;;;;;;;14.07;76.38;99916.44;5009807;28;20053;-69
2022/04/24 10:55:16;;;;;;;0.25;0.25;;;;;;;14.18;77.41;99905.97;5008209;28;20050;-68
2022/04/24 10:57:48;;;;;;;0.40;0.37;;;;;;;14.17;77.88;99905.16;5009143;28;20481;-69
2022/04/24 11:00:22;;;;;;;0.68;0.50;;;;;;;14.09;77.37;99898.50;5006138;28;20309;-68
2022/04/24 11:02:52;;;;;;;0.88;0.38;;;;;;;14.37;79.36;99886.38;5008962;28;20062;-67
2022/04/24 11:05:22;;;;;;;0.57;0.30;;;;;;;14.09;77.09;99898.50;5009492;28;20112;-67
2022/04/24 11:08:04;;;;;;;0.50;0.38;;;;;;;14.27;77.11;99890.25;5010319;28;20054;-68
2022/04/24 11:10:42;;;;;;;0.22;0.22;;;;;;;14.32;74.18;99884.59;5009780;28;20495;-68
2022/04/24 11:13:17;;;;;;;0.40;0.40;;;;;;;14.56;75.83;99882.53;5007835;28;20056;-68
2022/04/24 11:15:47;;;;;;;0.40;0.40;;;;;;;14.81;72.81;99885.63;5011276;28;20034;-68
2022/04/24 11:18:27;;;;;;;1.00;0.90;;;;;;;14.78;73.43;99878.81;5010185;28;20052;-68
2022/04/24 11:21:03;;;;;;;0.30;0.30;;;;;;;14.83;71.88;99866.81;5006979;28;20037;-68
2022/04/24 11:23:37;;;;;;;0.40;0.40;;;;;;;14.89;71.94;99871.00;4996745;28;20057;-68
2022/04/24 11:26:12;;;;;;;0.30;0.30;;;;;;;15.12;71.96;99868.88;4991531;28;20058;-69
2022/04/24 11:28:46;;;;;;;0.82;0.63;;;;;;;15.07;70.22;99865.47;5003817;28;20042;-68
2022/04/24 11:31:21;;;;;;;0.28;0.22;;;;;;;15.18;72.10;99863.97;4996126;28;20046;-68
2022/04/24 11:33:57;;;;;;;0.30;0.17;;;;;;;15.38;69.60;99862.47;5000693;28;20104;-69
2022/04/24 11:36:31;;;;;;;0.40;0.40;;;;;;;15.61;68.70;99855.88;5007782;28;20038;-69
2022/04/24 11:39:04;;;;;;;0.35;0.32;;;;;;;15.65;68.07;99857.63;5003199;28;20548;-68
2022/04/24 11:41:32;;;;;;;0.30;0.30;;;;;;;15.72;66.01;99843.31;5008241;28;20492;-70
2022/04/24 11:44:02;;;;;;;0.40;0.40;;;;;;;15.82;66.97;99850.41;5005283;28;20043;-69
2022/04/24 11:52:09;;;;;;;0.13;0.13;;;;;;;15.04;67.55;99865.00;5001452;28;20065;-69